sensor_id;sensor_type;location;lat;lon;timestamp;temperature;humidity
19252;DHT22;9760;50.944;5.304;2022-12-29T00:01:48;11.10;99.90
19252;DHT22;9760;50.944;5.304;2022-12-29T00:04:14;11.10;99.90
19252;DHT22;9760;50.944;5.304;2022-12-29T00:06:41;11.20;99.90
19252;DHT22;9760;50.944;5.304;2022-12-29T00:09:07;11.30;99.90
19252;DHT22;9760;50.944;5.304;2022-12-29T00:11:33;11.30;99.90
19252;DHT22;9760;50.944;5.304;2022-12-29T00:13:59;11.50;99.90
19252;DHT22;9760;50.944;5.304;2022-12-29T00:16:44;11.50;99.90
19252;DHT22;9760;50.944;5.304;2022-12-29T00:19:11;11.50;99.90
19252;DHT22;9760;50.944;5.304;2022-12-29T00:21:56;11.60;99.90
19252;DHT22;9760;50.944;5.304;2022-12-29T00:24:40;11.60;99.90
19252;DHT22;9760;50.944;5.304;2022-12-29T00:27:26;11.70;99.90
19252;DHT22;9760;50.944;5.304;2022-12-29T00:30:19;11.70;99.90
19252;DHT22;9760;50.944;5.304;2022-12-29T00:33:11;11.80;99.90
19252;DHT22;9760;50.944;5.304;2022-12-29T00:36:02;11.80;99.90
19252;DHT22;9760;50.944;5.304;2022-12-29T00:38:29;11.80;99.90
19252;DHT22;9760;50.944;5.304;2022-12-29T00:41:15;11.90;99.90
19252;DHT22;9760;50.944;5.304;2022-12-29T00:43:59;11.80;99.90
19252;DHT22;9760;50.944;5.304;2022-12-29T00:46:34;11.80;99.90
19252;DHT22;9760;50.944;5.304;2022-12-29T00:49:00;11.80;99.90
19252;DHT22;9760;50.944;5.304;2022-12-29T00:51:46;11.80;99.90
19252;DHT22;9760;50.944;5.304;2022-12-29T00:54:12;11.90;99.90
19252;DHT22;9760;50.944;5.304;2022-12-29T00:56:37;11.80;99.90
19252;DHT22;9760;50.944;5.304;2022-12-29T00:59:04;11.80;99.90
19252;DHT22;9760;50.944;5.304;2022-12-29T01:01:30;11.90;99.90
19252;DHT22;9760;50.944;5.304;2022-12-29T01:03:56;11.80;99.90
19252;DHT22;9760;50.944;5.304;2022-12-29T01:06:23;11.80;99.90
19252;DHT22;9760;50.944;5.304;2022-12-29T01:08:48;11.80;99.90
19252;DHT22;9760;50.944;5.304;2022-12-29T01:11:38;11.80;99.90
19252;DHT22;9760;50.944;5.304;2022-12-29T01:14:04;11.80;99.90
19252;DHT22;9760;50.944;5.304;2022-12-29T01:16:30;11.80;99.90
19252;DHT22;9760;50.944;5.304;2022-12-29T01:18:56;11.80;99.90
19252;DHT22;9760;50.944;5.304;2022-12-29T01:21:21;11.80;99.90
19252;DHT22;9760;50.944;5.304;2022-12-29T01:23:47;11.80;99.90
19252;DHT22;9760;50.944;5.304;2022-12-29T01:26:14;11.80;99.90
19252;DHT22;9760;50.944;5.304;2022-12-29T01:28:40;11.80;99.90
19252;DHT22;9760;50.944;5.304;2022-12-29T01:31:07;11.80;99.90
19252;DHT22;9760;50.944;5.304;2022-12-29T01:33:33;11.80;99.90
19252;DHT22;9760;50.944;5.304;2022-12-29T01:36:07;11.80;99.90
19252;DHT22;9760;50.944;5.304;2022-12-29T01:38:34;11.80;99.90
19252;DHT22;9760;50.944;5.304;2022-12-29T01:41:01;11.90;99.90
19252;DHT22;9760;50.944;5.304;2022-12-29T01:43:47;11.90;99.90
19252;DHT22;9760;50.944;5.304;2022-12-29T01:46:36;11.90;99.90
19252;DHT22;9760;50.944;5.304;2022-12-29T01:49:19;11.90;99.90
19252;DHT22;9760;50.944;5.304;2022-12-29T01:51:58;11.90;99.90
19252;DHT22;9760;50.944;5.304;2022-12-29T01:54:31;11.80;99.90
19252;DHT22;9760;50.944;5.304;2022-12-29T01:57:01;11.80;99.90
19252;DHT22;9760;50.944;5.304;2022-12-29T01:59:31;11.70;99.90
19252;DHT22;9760;50.944;5.304;2022-12-29T02:01:58;11.60;99.90
19252;DHT22;9760;50.944;5.304;2022-12-29T02:04:28;11.60;99.90
19252;DHT22;9760;50.944;5.304;2022-12-29T02:07:05;11.50;99.90
19252;DHT22;9760;50.944;5.304;2022-12-29T02:09:33;11.40;99.90
19252;DHT22;9760;50.944;5.304;2022-12-29T02:11:59;11.30;99.90
19252;DHT22;9760;50.944;5.304;2022-12-29T02:14:26;11.30;99.90
19252;DHT22;9760;50.944;5.304;2022-12-29T02:17:21;11.30;99.90
19252;DHT22;9760;50.944;5.304;2022-12-29T02:30:40;11.50;99.90
19252;DHT22;9760;50.944;5.304;2022-12-29T02:35:59;11.60;99.90
19252;DHT22;9760;50.944;5.304;2022-12-29T02:41:13;11.50;99.90
19252;DHT22;9760;50.944;5.304;2022-12-29T02:43:46;11.50;99.90
19252;DHT22;9760;50.944;5.304;2022-12-29T02:46:19;11.40;99.90
19252;DHT22;9760;50.944;5.304;2022-12-29T02:48:51;11.40;99.90
19252;DHT22;9760;50.944;5.304;2022-12-29T02:51:27;11.40;99.90
19252;DHT22;9760;50.944;5.304;2022-12-29T02:53:55;11.40;99.90
19252;DHT22;9760;50.944;5.304;2022-12-29T02:56:39;11.30;99.90
19252;DHT22;9760;50.944;5.304;2022-12-29T02:59:06;11.30;99.90
19252;DHT22;9760;50.944;5.304;2022-12-29T03:07:05;11.20;99.90
19252;DHT22;9760;50.944;5.304;2022-12-29T03:12:46;11.30;99.90
19252;DHT22;9760;50.944;5.304;2022-12-29T03:23:41;11.20;99.90
19252;DHT22;9760;50.944;5.304;2022-12-29T03:26:10;11.20;99.90
19252;DHT22;9760;50.944;5.304;2022-12-29T03:28:48;11.20;99.90
19252;DHT22;9760;50.944;5.304;2022-12-29T03:31:16;11.30;99.90
19252;DHT22;9760;50.944;5.304;2022-12-29T03:33:44;11.40;99.90
19252;DHT22;9760;50.944;5.304;2022-12-29T03:36:17;11.40;99.90
19252;DHT22;9760;50.944;5.304;2022-12-29T03:38:53;11.50;99.90
19252;DHT22;9760;50.944;5.304;2022-12-29T03:41:27;11.60;99.90
19252;DHT22;9760;50.944;5.304;2022-12-29T03:43:53;11.60;99.90
19252;DHT22;9760;50.944;5.304;2022-12-29T03:46:19;11.60;99.90
19252;DHT22;9760;50.944;5.304;2022-12-29T03:48:44;11.60;99.90
19252;DHT22;9760;50.944;5.304;2022-12-29T03:51:10;11.60;99.90
19252;DHT22;9760;50.944;5.304;2022-12-29T03:53:35;11.60;99.90
19252;DHT22;9760;50.944;5.304;2022-12-29T03:56:01;11.40;99.90
19252;DHT22;9760;50.944;5.304;2022-12-29T03:58:27;11.30;99.90
19252;DHT22;9760;50.944;5.304;2022-12-29T04:00:52;11.20;99.90
19252;DHT22;9760;50.944;5.304;2022-12-29T04:03:18;11.10;99.90
19252;DHT22;9760;50.944;5.304;2022-12-29T04:05:43;11.10;99.90
19252;DHT22;9760;50.944;5.304;2022-12-29T04:08:09;11.10;99.90
19252;DHT22;9760;50.944;5.304;2022-12-29T04:10:35;11.10;99.90
19252;DHT22;9760;50.944;5.304;2022-12-29T04:13:00;11.20;99.90
19252;DHT22;9760;50.944;5.304;2022-12-29T04:15:26;11.30;99.90
19252;DHT22;9760;50.944;5.304;2022-12-29T04:17:52;11.20;99.90
19252;DHT22;9760;50.944;5.304;2022-12-29T04:20:17;11.10;99.90
19252;DHT22;9760;50.944;5.304;2022-12-29T04:23:03;11.00;99.90
19252;DHT22;9760;50.944;5.304;2022-12-29T04:25:31;11.00;99.90
19252;DHT22;9760;50.944;5.304;2022-12-29T04:27:57;10.80;99.90
19252;DHT22;9760;50.944;5.304;2022-12-29T04:30:22;10.80;99.90
19252;DHT22;9760;50.944;5.304;2022-12-29T04:32:48;10.70;99.90
19252;DHT22;9760;50.944;5.304;2022-12-29T04:35:14;10.70;99.90
19252;DHT22;9760;50.944;5.304;2022-12-29T04:37:40;10.70;99.90
19252;DHT22;9760;50.944;5.304;2022-12-29T04:40:06;10.60;99.90
19252;DHT22;9760;50.944;5.304;2022-12-29T04:42:32;10.70;99.90
19252;DHT22;9760;50.944;5.304;2022-12-29T04:44:57;10.60;99.90
19252;DHT22;9760;50.944;5.304;2022-12-29T04:47:23;10.60;99.90
19252;DHT22;9760;50.944;5.304;2022-12-29T04:49:48;10.60;99.90
19252;DHT22;9760;50.944;5.304;2022-12-29T04:52:14;10.60;99.90
19252;DHT22;9760;50.944;5.304;2022-12-29T04:54:40;10.60;99.90
19252;DHT22;9760;50.944;5.304;2022-12-29T04:57:05;10.60;99.90
19252;DHT22;9760;50.944;5.304;2022-12-29T04:59:31;10.50;99.90
19252;DHT22;9760;50.944;5.304;2022-12-29T05:01:56;10.50;99.90
19252;DHT22;9760;50.944;5.304;2022-12-29T05:04:22;10.60;99.90
19252;DHT22;9760;50.944;5.304;2022-12-29T05:06:48;10.60;99.90
19252;DHT22;9760;50.944;5.304;2022-12-29T05:09:13;10.60;99.90
19252;DHT22;9760;50.944;5.304;2022-12-29T05:11:39;10.70;99.90
19252;DHT22;9760;50.944;5.304;2022-12-29T05:14:04;10.70;99.90
19252;DHT22;9760;50.944;5.304;2022-12-29T05:16:30;10.70;99.90
19252;DHT22;9760;50.944;5.304;2022-12-29T05:18:56;10.70;99.90
19252;DHT22;9760;50.944;5.304;2022-12-29T05:21:21;10.80;99.90
19252;DHT22;9760;50.944;5.304;2022-12-29T05:23:47;10.80;99.90
19252;DHT22;9760;50.944;5.304;2022-12-29T05:26:12;10.90;99.90
19252;DHT22;9760;50.944;5.304;2022-12-29T05:28:38;11.00;99.90
19252;DHT22;9760;50.944;5.304;2022-12-29T05:31:03;11.00;99.90
19252;DHT22;9760;50.944;5.304;2022-12-29T05:33:29;11.00;99.90
19252;DHT22;9760;50.944;5.304;2022-12-29T05:35:55;11.00;99.90
19252;DHT22;9760;50.944;5.304;2022-12-29T05:38:20;11.00;99.90
19252;DHT22;9760;50.944;5.304;2022-12-29T05:40:46;11.00;99.90
19252;DHT22;9760;50.944;5.304;2022-12-29T05:43:11;11.00;99.90
19252;DHT22;9760;50.944;5.304;2022-12-29T05:45:37;11.00;99.90
19252;DHT22;9760;50.944;5.304;2022-12-29T05:48:03;11.00;99.90
19252;DHT22;9760;50.944;5.304;2022-12-29T05:50:29;11.00;99.90
19252;DHT22;9760;50.944;5.304;2022-12-29T05:52:54;11.00;99.90
19252;DHT22;9760;50.944;5.304;2022-12-29T05:55:20;11.10;99.90
19252;DHT22;9760;50.944;5.304;2022-12-29T05:57:46;11.10;99.90
19252;DHT22;9760;50.944;5.304;2022-12-29T06:00:12;11.10;99.90
19252;DHT22;9760;50.944;5.304;2022-12-29T06:02:37;11.10;99.90
19252;DHT22;9760;50.944;5.304;2022-12-29T06:05:03;11.20;99.90
19252;DHT22;9760;50.944;5.304;2022-12-29T06:07:29;11.10;99.90
19252;DHT22;9760;50.944;5.304;2022-12-29T06:09:54;11.10;99.90
19252;DHT22;9760;50.944;5.304;2022-12-29T06:12:20;11.10;99.90
19252;DHT22;9760;50.944;5.304;2022-12-29T06:14:46;11.20;99.90
19252;DHT22;9760;50.944;5.304;2022-12-29T06:17:11;11.10;99.90
19252;DHT22;9760;50.944;5.304;2022-12-29T06:19:37;11.10;99.90
19252;DHT22;9760;50.944;5.304;2022-12-29T06:22:02;11.10;99.90
19252;DHT22;9760;50.944;5.304;2022-12-29T06:24:28;11.10;99.90
19252;DHT22;9760;50.944;5.304;2022-12-29T06:26:54;11.00;99.90
19252;DHT22;9760;50.944;5.304;2022-12-29T06:29:19;11.00;99.90
19252;DHT22;9760;50.944;5.304;2022-12-29T06:31:46;11.00;99.90
19252;DHT22;9760;50.944;5.304;2022-12-29T06:34:12;11.00;99.90
19252;DHT22;9760;50.944;5.304;2022-12-29T06:36:38;10.90;99.90
19252;DHT22;9760;50.944;5.304;2022-12-29T06:39:04;10.90;99.90
19252;DHT22;9760;50.944;5.304;2022-12-29T06:41:30;10.90;99.90
19252;DHT22;9760;50.944;5.304;2022-12-29T06:43:56;10.80;99.90
19252;DHT22;9760;50.944;5.304;2022-12-29T06:46:21;10.80;99.90
19252;DHT22;9760;50.944;5.304;2022-12-29T06:48:47;10.80;99.90
19252;DHT22;9760;50.944;5.304;2022-12-29T06:51:12;10.90;99.90
19252;DHT22;9760;50.944;5.304;2022-12-29T06:53:38;10.80;99.90
19252;DHT22;9760;50.944;5.304;2022-12-29T06:56:04;10.80;99.90
19252;DHT22;9760;50.944;5.304;2022-12-29T06:58:30;10.80;99.90
19252;DHT22;9760;50.944;5.304;2022-12-29T07:00:55;10.80;99.90
19252;DHT22;9760;50.944;5.304;2022-12-29T07:03:21;10.80;99.90
19252;DHT22;9760;50.944;5.304;2022-12-29T07:05:46;10.90;99.90
19252;DHT22;9760;50.944;5.304;2022-12-29T07:08:12;10.90;99.90
19252;DHT22;9760;50.944;5.304;2022-12-29T07:10:38;10.90;99.90
19252;DHT22;9760;50.944;5.304;2022-12-29T07:13:03;10.90;99.90
19252;DHT22;9760;50.944;5.304;2022-12-29T07:15:29;11.00;99.90
19252;DHT22;9760;50.944;5.304;2022-12-29T07:17:55;11.00;99.90
19252;DHT22;9760;50.944;5.304;2022-12-29T07:20:20;10.90;99.90
19252;DHT22;9760;50.944;5.304;2022-12-29T07:22:46;10.90;99.90
19252;DHT22;9760;50.944;5.304;2022-12-29T07:25:12;10.90;99.90
19252;DHT22;9760;50.944;5.304;2022-12-29T07:27:38;10.90;99.90
19252;DHT22;9760;50.944;5.304;2022-12-29T07:30:04;10.90;99.90
19252;DHT22;9760;50.944;5.304;2022-12-29T07:32:32;10.90;99.90
19252;DHT22;9760;50.944;5.304;2022-12-29T07:34:59;10.80;99.90
19252;DHT22;9760;50.944;5.304;2022-12-29T07:37:24;10.70;99.90
19252;DHT22;9760;50.944;5.304;2022-12-29T07:39:50;10.60;99.90
19252;DHT22;9760;50.944;5.304;2022-12-29T07:42:15;10.50;99.90
19252;DHT22;9760;50.944;5.304;2022-12-29T07:44:41;10.40;99.90
19252;DHT22;9760;50.944;5.304;2022-12-29T07:47:07;10.40;99.90
19252;DHT22;9760;50.944;5.304;2022-12-29T07:49:32;10.40;99.90
19252;DHT22;9760;50.944;5.304;2022-12-29T07:51:58;10.50;99.90
19252;DHT22;9760;50.944;5.304;2022-12-29T07:54:24;10.50;99.90
19252;DHT22;9760;50.944;5.304;2022-12-29T07:56:50;10.40;99.90
19252;DHT22;9760;50.944;5.304;2022-12-29T07:59:15;10.50;99.90
19252;DHT22;9760;50.944;5.304;2022-12-29T08:01:41;10.50;99.90
19252;DHT22;9760;50.944;5.304;2022-12-29T08:04:07;10.50;99.90
19252;DHT22;9760;50.944;5.304;2022-12-29T08:06:33;10.60;99.90
19252;DHT22;9760;50.944;5.304;2022-12-29T08:08:58;10.50;99.90
19252;DHT22;9760;50.944;5.304;2022-12-29T08:11:25;10.50;99.90
19252;DHT22;9760;50.944;5.304;2022-12-29T08:13:51;10.60;99.90
19252;DHT22;9760;50.944;5.304;2022-12-29T08:16:16;10.50;99.90
19252;DHT22;9760;50.944;5.304;2022-12-29T08:18:43;10.60;99.90
19252;DHT22;9760;50.944;5.304;2022-12-29T08:21:09;10.60;99.90
19252;DHT22;9760;50.944;5.304;2022-12-29T08:23:35;10.70;99.90
19252;DHT22;9760;50.944;5.304;2022-12-29T08:26:02;10.80;99.90
19252;DHT22;9760;50.944;5.304;2022-12-29T08:28:29;10.80;99.90
19252;DHT22;9760;50.944;5.304;2022-12-29T08:30:57;10.80;99.90
19252;DHT22;9760;50.944;5.304;2022-12-29T08:33:24;10.90;99.90
19252;DHT22;9760;50.944;5.304;2022-12-29T08:35:49;10.90;99.90
19252;DHT22;9760;50.944;5.304;2022-12-29T08:38:15;10.90;99.90
19252;DHT22;9760;50.944;5.304;2022-12-29T08:40:41;10.90;99.90
19252;DHT22;9760;50.944;5.304;2022-12-29T08:43:06;11.00;99.90
19252;DHT22;9760;50.944;5.304;2022-12-29T08:45:32;11.00;99.90
19252;DHT22;9760;50.944;5.304;2022-12-29T08:47:58;11.00;99.90
19252;DHT22;9760;50.944;5.304;2022-12-29T08:50:23;11.00;99.90
19252;DHT22;9760;50.944;5.304;2022-12-29T08:52:49;10.90;99.90
19252;DHT22;9760;50.944;5.304;2022-12-29T08:55:15;10.90;99.90
19252;DHT22;9760;50.944;5.304;2022-12-29T08:57:40;10.90;99.90
19252;DHT22;9760;50.944;5.304;2022-12-29T09:00:07;10.80;99.90
19252;DHT22;9760;50.944;5.304;2022-12-29T09:02:33;10.80;99.90
19252;DHT22;9760;50.944;5.304;2022-12-29T09:04:58;10.80;99.90
19252;DHT22;9760;50.944;5.304;2022-12-29T09:07:25;10.80;99.90
19252;DHT22;9760;50.944;5.304;2022-12-29T09:09:51;10.80;99.90
19252;DHT22;9760;50.944;5.304;2022-12-29T09:12:17;10.90;99.90
19252;DHT22;9760;50.944;5.304;2022-12-29T09:14:42;10.90;99.90
19252;DHT22;9760;50.944;5.304;2022-12-29T09:17:10;10.80;99.90
19252;DHT22;9760;50.944;5.304;2022-12-29T09:19:54;10.80;99.90
19252;DHT22;9760;50.944;5.304;2022-12-29T09:22:20;10.70;99.90
19252;DHT22;9760;50.944;5.304;2022-12-29T09:24:45;10.70;99.90
19252;DHT22;9760;50.944;5.304;2022-12-29T09:27:11;10.80;99.90
19252;DHT22;9760;50.944;5.304;2022-12-29T09:29:37;10.80;99.90
19252;DHT22;9760;50.944;5.304;2022-12-29T09:32:02;10.80;99.90
19252;DHT22;9760;50.944;5.304;2022-12-29T09:34:28;10.80;99.90
19252;DHT22;9760;50.944;5.304;2022-12-29T09:36:54;10.80;99.90
19252;DHT22;9760;50.944;5.304;2022-12-29T09:39:22;10.90;99.90
19252;DHT22;9760;50.944;5.304;2022-12-29T09:42:16;10.90;99.90
19252;DHT22;9760;50.944;5.304;2022-12-29T09:45:05;11.00;99.90
19252;DHT22;9760;50.944;5.304;2022-12-29T09:47:33;11.00;99.90
19252;DHT22;9760;50.944;5.304;2022-12-29T09:50:03;11.00;99.90
19252;DHT22;9760;50.944;5.304;2022-12-29T09:52:50;11.00;99.90
19252;DHT22;9760;50.944;5.304;2022-12-29T09:55:22;10.90;99.90
19252;DHT22;9760;50.944;5.304;2022-12-29T09:58:12;11.00;99.90
19252;DHT22;9760;50.944;5.304;2022-12-29T10:03:20;11.10;99.90
19252;DHT22;9760;50.944;5.304;2022-12-29T10:06:05;11.10;99.90
19252;DHT22;9760;50.944;5.304;2022-12-29T10:09:32;11.10;99.90
19252;DHT22;9760;50.944;5.304;2022-12-29T10:12:46;11.10;99.90
19252;DHT22;9760;50.944;5.304;2022-12-29T10:20:31;11.10;99.90
19252;DHT22;9760;50.944;5.304;2022-12-29T10:25:49;11.00;99.90
19252;DHT22;9760;50.944;5.304;2022-12-29T10:30:47;11.20;99.90
19252;DHT22;9760;50.944;5.304;2022-12-29T10:33:18;11.20;99.90
19252;DHT22;9760;50.944;5.304;2022-12-29T10:35:47;11.30;99.90
19252;DHT22;9760;50.944;5.304;2022-12-29T10:38:28;11.20;99.90
19252;DHT22;9760;50.944;5.304;2022-12-29T10:41:00;11.20;99.90
19252;DHT22;9760;50.944;5.304;2022-12-29T10:45:57;11.70;99.90
19252;DHT22;9760;50.944;5.304;2022-12-29T10:48:33;11.90;99.90
19252;DHT22;9760;50.944;5.304;2022-12-29T10:51:02;12.00;99.90
19252;DHT22;9760;50.944;5.304;2022-12-29T10:56:43;11.40;99.90
19252;DHT22;9760;50.944;5.304;2022-12-29T10:59:19;11.40;99.90
19252;DHT22;9760;50.944;5.304;2022-12-29T11:05:37;11.60;99.90
19252;DHT22;9760;50.944;5.304;2022-12-29T11:07:43;11.60;99.90
19252;DHT22;9760;50.944;5.304;2022-12-29T11:10:41;11.60;99.90
19252;DHT22;9760;50.944;5.304;2022-12-29T11:13:16;11.60;99.90
19252;DHT22;9760;50.944;5.304;2022-12-29T11:15:45;11.50;99.90
19252;DHT22;9760;50.944;5.304;2022-12-29T11:18:26;11.50;99.90
19252;DHT22;9760;50.944;5.304;2022-12-29T11:20:56;11.50;99.90
19252;DHT22;9760;50.944;5.304;2022-12-29T11:23:37;11.40;99.90
19252;DHT22;9760;50.944;5.304;2022-12-29T11:28:37;11.40;99.90
19252;DHT22;9760;50.944;5.304;2022-12-29T11:31:04;11.50;99.90
19252;DHT22;9760;50.944;5.304;2022-12-29T11:33:31;11.50;99.90
19252;DHT22;9760;50.944;5.304;2022-12-29T11:36:01;11.50;99.90
19252;DHT22;9760;50.944;5.304;2022-12-29T11:38:37;11.40;99.90
19252;DHT22;9760;50.944;5.304;2022-12-29T11:41:04;11.40;99.90
19252;DHT22;9760;50.944;5.304;2022-12-29T11:43:34;11.30;99.90
19252;DHT22;9760;50.944;5.304;2022-12-29T11:46:02;11.30;99.90
19252;DHT22;9760;50.944;5.304;2022-12-29T11:48:41;11.30;99.90
19252;DHT22;9760;50.944;5.304;2022-12-29T11:51:08;11.40;99.90
19252;DHT22;9760;50.944;5.304;2022-12-29T11:53:46;11.40;99.90
19252;DHT22;9760;50.944;5.304;2022-12-29T11:56:16;11.40;99.90
19252;DHT22;9760;50.944;5.304;2022-12-29T11:58:42;11.50;99.90
19252;DHT22;9760;50.944;5.304;2022-12-29T12:03:56;11.50;99.90
19252;DHT22;9760;50.944;5.304;2022-12-29T12:06:25;11.50;99.90
19252;DHT22;9760;50.944;5.304;2022-12-29T12:09:19;11.60;99.90
19252;DHT22;9760;50.944;5.304;2022-12-29T12:11:52;11.50;99.90
19252;DHT22;9760;50.944;5.304;2022-12-29T12:14:38;11.50;99.90
19252;DHT22;9760;50.944;5.304;2022-12-29T12:17:23;11.40;99.90
19252;DHT22;9760;50.944;5.304;2022-12-29T12:19:58;11.40;99.90
19252;DHT22;9760;50.944;5.304;2022-12-29T12:22:34;11.40;99.90
19252;DHT22;9760;50.944;5.304;2022-12-29T12:25:12;11.60;99.90
19252;DHT22;9760;50.944;5.304;2022-12-29T12:27:47;11.60;99.90
19252;DHT22;9760;50.944;5.304;2022-12-29T12:30:23;11.70;99.90
19252;DHT22;9760;50.944;5.304;2022-12-29T12:33:00;11.60;99.90
19252;DHT22;9760;50.944;5.304;2022-12-29T12:35:44;11.60;99.90
19252;DHT22;9760;50.944;5.304;2022-12-29T12:43:50;11.40;99.90
19252;DHT22;9760;50.944;5.304;2022-12-29T12:46:31;11.40;99.90
19252;DHT22;9760;50.944;5.304;2022-12-29T12:49:56;11.40;99.90
19252;DHT22;9760;50.944;5.304;2022-12-29T12:57:56;11.40;99.90
19252;DHT22;9760;50.944;5.304;2022-12-29T13:00:18;11.40;99.90
19252;DHT22;9760;50.944;5.304;2022-12-29T13:03:05;11.40;99.90
19252;DHT22;9760;50.944;5.304;2022-12-29T13:09:08;11.30;99.90
19252;DHT22;9760;50.944;5.304;2022-12-29T13:17:14;11.30;99.90
19252;DHT22;9760;50.944;5.304;2022-12-29T13:20:02;11.30;99.90
19252;DHT22;9760;50.944;5.304;2022-12-29T13:22:44;11.30;99.90
19252;DHT22;9760;50.944;5.304;2022-12-29T13:25:44;11.40;99.90
19252;DHT22;9760;50.944;5.304;2022-12-29T13:28:31;11.40;99.90
19252;DHT22;9760;50.944;5.304;2022-12-29T13:31:04;11.40;99.90
19252;DHT22;9760;50.944;5.304;2022-12-29T13:36:45;11.30;99.90
19252;DHT22;9760;50.944;5.304;2022-12-29T13:41:44;11.20;99.90
19252;DHT22;9760;50.944;5.304;2022-12-29T13:44:17;11.30;99.90
19252;DHT22;9760;50.944;5.304;2022-12-29T13:46:46;11.30;99.90
19252;DHT22;9760;50.944;5.304;2022-12-29T13:49:19;11.20;99.90
19252;DHT22;9760;50.944;5.304;2022-12-29T13:51:56;11.20;99.90
19252;DHT22;9760;50.944;5.304;2022-12-29T13:54:35;11.10;99.90
19252;DHT22;9760;50.944;5.304;2022-12-29T14:05:32;11.10;99.90
19252;DHT22;9760;50.944;5.304;2022-12-29T14:08:02;11.00;99.90
19252;DHT22;9760;50.944;5.304;2022-12-29T14:10:37;11.00;99.90
19252;DHT22;9760;50.944;5.304;2022-12-29T14:13:11;10.60;99.90
19252;DHT22;9760;50.944;5.304;2022-12-29T14:15:39;10.30;99.90
19252;DHT22;9760;50.944;5.304;2022-12-29T14:21:07;10.00;99.90
19252;DHT22;9760;50.944;5.304;2022-12-29T14:28:34;10.00;99.90
19252;DHT22;9760;50.944;5.304;2022-12-29T14:31:01;10.00;99.90
19252;DHT22;9760;50.944;5.304;2022-12-29T14:33:30;9.90;99.90
19252;DHT22;9760;50.944;5.304;2022-12-29T14:35:57;9.80;99.90
19252;DHT22;9760;50.944;5.304;2022-12-29T14:38:26;9.70;99.90
19252;DHT22;9760;50.944;5.304;2022-12-29T14:40:53;9.50;99.90
19252;DHT22;9760;50.944;5.304;2022-12-29T14:43:38;9.40;99.90
19252;DHT22;9760;50.944;5.304;2022-12-29T14:46:07;9.20;99.90
19252;DHT22;9760;50.944;5.304;2022-12-29T14:48:38;9.10;99.90
19252;DHT22;9760;50.944;5.304;2022-12-29T14:51:31;9.10;99.90
19252;DHT22;9760;50.944;5.304;2022-12-29T14:53:57;9.10;99.90
19252;DHT22;9760;50.944;5.304;2022-12-29T14:56:28;9.10;99.90
19252;DHT22;9760;50.944;5.304;2022-12-29T14:59:01;9.00;99.90
19252;DHT22;9760;50.944;5.304;2022-12-29T15:01:47;9.10;99.90
19252;DHT22;9760;50.944;5.304;2022-12-29T15:04:19;9.10;99.90
19252;DHT22;9760;50.944;5.304;2022-12-29T15:06:46;9.20;99.90
19252;DHT22;9760;50.944;5.304;2022-12-29T15:12:11;9.20;99.90
19252;DHT22;9760;50.944;5.304;2022-12-29T15:14:49;9.30;99.90
19252;DHT22;9760;50.944;5.304;2022-12-29T15:17:32;9.30;99.90
19252;DHT22;9760;50.944;5.304;2022-12-29T15:20:00;9.40;99.90
19252;DHT22;9760;50.944;5.304;2022-12-29T15:22:27;9.40;99.90
19252;DHT22;9760;50.944;5.304;2022-12-29T15:24:54;9.40;99.90
19252;DHT22;9760;50.944;5.304;2022-12-29T15:27:25;9.50;99.90
19252;DHT22;9760;50.944;5.304;2022-12-29T15:30:00;9.50;99.90
19252;DHT22;9760;50.944;5.304;2022-12-29T15:32:29;9.60;99.90
19252;DHT22;9760;50.944;5.304;2022-12-29T15:34:57;9.60;99.90
19252;DHT22;9760;50.944;5.304;2022-12-29T15:37:33;9.60;99.90
19252;DHT22;9760;50.944;5.304;2022-12-29T15:40:01;9.50;99.90
19252;DHT22;9760;50.944;5.304;2022-12-29T15:44:55;9.40;99.90
19252;DHT22;9760;50.944;5.304;2022-12-29T15:47:29;9.20;99.90
19252;DHT22;9760;50.944;5.304;2022-12-29T15:52:33;9.10;99.90
19252;DHT22;9760;50.944;5.304;2022-12-29T15:55:00;9.20;99.90
19252;DHT22;9760;50.944;5.304;2022-12-29T15:57:30;9.20;99.90
19252;DHT22;9760;50.944;5.304;2022-12-29T15:59:57;9.20;99.90
19252;DHT22;9760;50.944;5.304;2022-12-29T16:02:25;9.20;99.90
19252;DHT22;9760;50.944;5.304;2022-12-29T16:04:51;9.20;99.90
19252;DHT22;9760;50.944;5.304;2022-12-29T16:07:30;9.30;99.90
19252;DHT22;9760;50.944;5.304;2022-12-29T16:09:58;9.30;99.90
19252;DHT22;9760;50.944;5.304;2022-12-29T16:12:32;9.30;99.90
19252;DHT22;9760;50.944;5.304;2022-12-29T16:15:02;9.30;99.90
19252;DHT22;9760;50.944;5.304;2022-12-29T16:17:33;9.20;99.90
19252;DHT22;9760;50.944;5.304;2022-12-29T16:20:02;9.10;99.90
19252;DHT22;9760;50.944;5.304;2022-12-29T16:22:34;9.10;99.90
19252;DHT22;9760;50.944;5.304;2022-12-29T16:27:37;8.80;99.90
19252;DHT22;9760;50.944;5.304;2022-12-29T16:30:12;8.70;99.90
19252;DHT22;9760;50.944;5.304;2022-12-29T16:32:46;8.80;99.90
19252;DHT22;9760;50.944;5.304;2022-12-29T16:35:23;8.80;99.90
19252;DHT22;9760;50.944;5.304;2022-12-29T16:38:20;8.90;99.90
19252;DHT22;9760;50.944;5.304;2022-12-29T16:48:23;8.60;99.90
19252;DHT22;9760;50.944;5.304;2022-12-29T16:50:51;8.50;99.90
19252;DHT22;9760;50.944;5.304;2022-12-29T16:53:29;8.40;99.90
19252;DHT22;9760;50.944;5.304;2022-12-29T16:55:59;8.40;99.90
19252;DHT22;9760;50.944;5.304;2022-12-29T16:58:27;8.40;99.90
19252;DHT22;9760;50.944;5.304;2022-12-29T17:00:59;8.30;99.90
19252;DHT22;9760;50.944;5.304;2022-12-29T17:03:32;8.40;99.90
19252;DHT22;9760;50.944;5.304;2022-12-29T17:05:59;8.40;99.90
19252;DHT22;9760;50.944;5.304;2022-12-29T17:08:24;8.40;99.90
19252;DHT22;9760;50.944;5.304;2022-12-29T17:10:52;8.30;99.90
19252;DHT22;9760;50.944;5.304;2022-12-29T17:13:38;8.30;99.90
19252;DHT22;9760;50.944;5.304;2022-12-29T17:16:05;8.30;99.90
19252;DHT22;9760;50.944;5.304;2022-12-29T17:18:33;8.30;99.90
19252;DHT22;9760;50.944;5.304;2022-12-29T17:20:59;8.40;99.90
19252;DHT22;9760;50.944;5.304;2022-12-29T17:23:25;8.40;99.90
19252;DHT22;9760;50.944;5.304;2022-12-29T17:25:52;8.40;99.90
19252;DHT22;9760;50.944;5.304;2022-12-29T17:28:19;8.50;99.90
19252;DHT22;9760;50.944;5.304;2022-12-29T17:30:46;8.40;99.90
19252;DHT22;9760;50.944;5.304;2022-12-29T17:33:14;8.40;99.90
19252;DHT22;9760;50.944;5.304;2022-12-29T17:35:41;8.40;99.90
19252;DHT22;9760;50.944;5.304;2022-12-29T17:38:21;8.40;99.90
19252;DHT22;9760;50.944;5.304;2022-12-29T17:40:48;8.40;99.90
19252;DHT22;9760;50.944;5.304;2022-12-29T17:43:15;8.30;99.90
19252;DHT22;9760;50.944;5.304;2022-12-29T17:45:42;8.40;99.90
19252;DHT22;9760;50.944;5.304;2022-12-29T17:48:16;8.40;99.90
19252;DHT22;9760;50.944;5.304;2022-12-29T17:50:43;8.30;99.90
19252;DHT22;9760;50.944;5.304;2022-12-29T17:53:24;8.30;99.90
19252;DHT22;9760;50.944;5.304;2022-12-29T17:55:50;8.30;99.90
19252;DHT22;9760;50.944;5.304;2022-12-29T17:58:29;8.30;99.90
19252;DHT22;9760;50.944;5.304;2022-12-29T18:01:00;8.30;99.90
19252;DHT22;9760;50.944;5.304;2022-12-29T18:05:55;8.20;99.90
19252;DHT22;9760;50.944;5.304;2022-12-29T18:08:22;8.20;99.90
19252;DHT22;9760;50.944;5.304;2022-12-29T18:10:51;8.10;99.90
19252;DHT22;9760;50.944;5.304;2022-12-29T18:13:22;8.10;99.90
19252;DHT22;9760;50.944;5.304;2022-12-29T18:15:50;8.10;99.90